Time;durP1;ratioP1;P1;durP2;ratioP2;P2;SDS_P1;SDS_P2;PMS_P1;PMS_P2;Temp;Humidity;BMP_temperature;BMP_pressure;BME280_temperature;BME280_humidity;BME280_pressure;Samples;Min_cycle;Max_cycle;Signal;HPM_P1;HPM_P2
2022/01/17 00:01:20;;;;;;;1.33;1.33;;;;;;;-3.14;80.16;92763.81;4957284;28;20595;-72
2022/01/17 00:03:47;;;;;;;1.40;1.40;;;;;;;-2.93;78.97;92787.09;4957343;28;20213;-72
2022/01/17 00:06:15;;;;;;;0.93;0.93;;;;;;;-2.81;78.07;92793.81;4956655;28;20219;-72
2022/01/17 00:08:46;;;;;;;1.23;1.10;;;;;;;-3.22;77.88;92726.72;4957337;28;20592;-72
2022/01/17 00:11:14;;;;;;;2.23;1.60;;;;;;;-2.82;77.81;92777.34;4956945;28;20651;-72
2022/01/17 00:13:42;;;;;;;0.83;0.83;;;;;;;-2.61;78.33;92797.31;4958668;28;20572;-72
2022/01/17 00:16:15;;;;;;;1.43;1.43;;;;;;;-3.00;78.10;92737.63;4956957;28;20482;-72
2022/01/17 00:21:28;;;;;;;0.70;0.70;;;;;;;-2.84;77.78;92756.72;4956453;28;20525;-72
2022/01/17 00:23:57;;;;;;;2.17;2.13;;;;;;;-2.59;77.36;92773.41;4957025;28;20522;-72
2022/01/17 00:26:24;;;;;;;1.77;1.77;;;;;;;-2.71;78.14;92780.75;4955907;28;20499;-72
2022/01/17 00:28:52;;;;;;;1.33;1.33;;;;;;;-2.91;77.76;92735.22;4956773;28;20255;-72
2022/01/17 00:31:19;;;;;;;1.33;1.33;;;;;;;-2.68;77.23;92765.91;4956959;28;20457;-72
2022/01/17 00:33:46;;;;;;;1.10;1.10;;;;;;;-2.62;77.44;92780.81;4956843;28;20200;-72
2022/01/17 00:36:14;;;;;;;2.27;2.10;;;;;;;-2.54;77.04;92789.13;4956759;28;20579;-72
2022/01/17 00:38:41;;;;;;;1.53;1.47;;;;;;;-2.58;77.66;92794.84;4956271;28;20587;-72
2022/01/17 00:41:10;;;;;;;1.33;1.33;;;;;;;-2.75;77.88;92768.31;4957236;28;20192;-72
2022/01/17 00:43:37;;;;;;;1.77;1.77;;;;;;;-2.77;77.65;92769.97;4956575;28;20452;-72
2022/01/17 00:46:05;;;;;;;1.80;1.73;;;;;;;-2.93;78.42;92762.38;4956708;28;20583;-72
2022/01/17 00:48:33;;;;;;;1.50;1.30;;;;;;;-3.30;79.54;92728.25;4958479;28;20200;-72
2022/01/17 00:51:01;;;;;;;1.57;1.43;;;;;;;-3.31;79.19;92710.94;4960598;28;20553;-72
2022/01/17 00:53:30;;;;;;;1.50;1.50;;;;;;;-3.70;79.64;92662.81;4960724;28;20595;-72
2022/01/17 00:55:57;;;;;;;3.43;1.30;;;;;;;-3.23;80.82;92754.69;4960403;28;20529;-72
2022/01/17 00:58:26;;;;;;;1.73;1.73;;;;;;;-3.02;80.04;92771.34;4960258;28;20191;-72
2022/01/17 01:00:54;;;;;;;2.50;2.30;;;;;;;-2.94;79.97;92767.34;4960615;28;20557;-72
2022/01/17 01:03:21;;;;;;;1.83;1.80;;;;;;;-3.09;80.78;92757.28;4959881;28;20613;-72
2022/01/17 01:05:49;;;;;;;3.17;1.70;;;;;;;-3.31;80.59;92731.53;4959958;28;20549;-72
2022/01/17 01:08:16;;;;;;;11.67;1.83;;;;;;;-3.08;79.81;92754.00;4959765;28;20505;-72
2022/01/17 01:10:44;;;;;;;1.67;1.57;;;;;;;-3.00;80.18;92749.97;4960195;28;20556;-72
2022/01/17 01:13:12;;;;;;;4.33;1.47;;;;;;;-2.87;80.09;92755.88;4960467;28;20595;-72
2022/01/17 01:15:57;;;;;;;1.43;1.37;;;;;;;-3.07;79.31;92718.59;4940725;28;20658;-72
2022/01/17 01:18:38;;;;;;;1.67;1.67;;;;;;;-2.80;78.09;92748.50;4940725;28;20595;-72
2022/01/17 01:29:45;;;;;;;1.70;1.60;;;;;;;-2.93;80.96;92725.31;4961345;28;20599;-72
2022/01/17 01:32:19;;;;;;;0.63;0.63;;;;;;;-2.94;80.36;92721.22;4959667;28;20525;-72
2022/01/17 01:34:50;;;;;;;1.60;1.60;;;;;;;-3.01;80.43;92712.09;4959883;28;20237;-72
2022/01/17 01:37:18;;;;;;;1.20;1.20;;;;;;;-2.85;79.62;92731.97;4962143;28;20227;-72
2022/01/17 01:39:46;;;;;;;1.50;1.50;;;;;;;-2.98;80.29;92724.44;4959827;28;20575;-72
2022/01/17 01:42:16;;;;;;;1.57;1.50;;;;;;;-2.99;80.77;92717.03;4959953;28;20635;-72
2022/01/17 01:44:45;;;;;;;1.47;1.47;;;;;;;-3.16;81.25;92716.06;4959595;28;20191;-72
2022/01/17 01:47:14;;;;;;;1.60;1.60;;;;;;;-3.32;81.95;92699.44;4960834;28;20255;-72
2022/01/17 01:49:41;;;;;;;2.23;2.23;;;;;;;-3.19;81.57;92709.44;4959324;28;20196;-72
2022/01/17 01:52:08;;;;;;;7.23;1.83;;;;;;;-3.35;82.42;92695.28;4959377;28;20513;-72
2022/01/17 01:54:36;;;;;;;1.63;1.63;;;;;;;-3.28;81.95;92693.72;4959044;28;20581;-73
2022/01/17 01:57:03;;;;;;;1.13;1.13;;;;;;;-3.41;82.90;92680.41;4959252;28;20239;-72
2022/01/17 01:59:31;;;;;;;1.20;1.20;;;;;;;-3.30;82.47;92692.84;4958944;28;20581;-72
2022/01/17 02:01:58;;;;;;;0.90;0.90;;;;;;;-3.36;82.66;92683.75;4958710;28;20636;-73
2022/01/17 02:04:29;;;;;;;1.23;1.23;;;;;;;-3.41;82.94;92686.19;4959490;28;20574;-72
2022/01/17 02:06:56;;;;;;;0.90;0.90;;;;;;;-3.59;83.46;92676.09;4958961;28;20231;-72
2022/01/17 02:09:24;;;;;;;3.30;1.37;;;;;;;-3.35;82.79;92683.78;4959160;28;20196;-72
2022/01/17 02:11:52;;;;;;;1.10;1.10;;;;;;;-3.41;82.44;92670.53;4958971;28;20549;-72
2022/01/17 02:14:22;;;;;;;0.77;0.77;;;;;;;-3.53;81.85;92639.13;4958517;28;20503;-73
2022/01/17 02:16:51;;;;;;;6.17;1.30;;;;;;;-3.26;81.71;92670.66;4958784;28;20223;-72
2022/01/17 02:19:24;;;;;;;1.00;1.00;;;;;;;-3.58;81.90;92625.94;4959345;28;20234;-72
2022/01/17 02:21:53;;;;;;;1.67;1.57;;;;;;;-3.25;82.25;92686.31;4958637;28;20479;-73
2022/01/17 02:24:22;;;;;;;1.27;1.27;;;;;;;-3.38;82.89;92680.44;4958601;28;20447;-72
2022/01/17 02:26:51;;;;;;;2.40;2.40;;;;;;;-3.42;82.51;92669.69;4958148;28;20497;-73
2022/01/17 02:29:19;;;;;;;2.60;2.37;;;;;;;-3.45;84.36;92677.09;4959719;28;20642;-73
2022/01/17 02:31:47;;;;;;;2.33;2.27;;;;;;;-3.66;83.78;92658.75;4958393;28;20546;-73
2022/01/17 02:34:15;;;;;;;2.83;2.73;;;;;;;-3.46;84.09;92687.78;4957916;28;20531;-73
2022/01/17 02:36:43;;;;;;;1.27;1.27;;;;;;;-3.59;84.77;92673.63;4959131;28;20464;-73
2022/01/17 02:39:11;;;;;;;1.60;1.60;;;;;;;-4.01;85.46;92631.22;4958211;28;20558;-73
2022/01/17 02:41:40;;;;;;;3.03;2.90;;;;;;;-4.15;86.05;92608.88;4958414;28;20490;-73
2022/01/17 02:44:08;;;;;;;3.57;3.47;;;;;;;-3.65;84.93;92670.28;4959031;28;20465;-72
2022/01/17 02:46:36;;;;;;;2.10;2.10;;;;;;;-3.73;85.03;92671.84;4959423;28;20220;-73
2022/01/17 02:49:06;;;;;;;2.70;2.50;;;;;;;-3.69;84.97;92674.34;4958612;28;20594;-72
2022/01/17 02:51:34;;;;;;;2.50;2.50;;;;;;;-3.74;85.32;92661.16;4958157;28;20220;-73
2022/01/17 02:54:02;;;;;;;2.80;2.60;;;;;;;-3.82;85.42;92655.28;4958669;28;20479;-73
2022/01/17 02:56:31;;;;;;;2.27;2.27;;;;;;;-4.28;85.14;92568.44;4958082;28;20467;-73
2022/01/17 02:58:59;;;;;;;4.63;4.40;;;;;;;-4.26;85.72;92583.25;4957630;28;20639;-73
2022/01/17 03:01:28;;;;;;;2.57;2.37;;;;;;;-4.54;86.70;92564.03;4958363;28;20561;-73
2022/01/17 03:03:57;;;;;;;2.27;2.20;;;;;;;-4.10;86.92;92668.09;4958070;28;20674;-73
2022/01/17 03:06:26;;;;;;;2.47;2.43;;;;;;;-4.47;87.64;92628.22;4957740;28;20587;-73
2022/01/17 03:08:54;;;;;;;2.40;2.40;;;;;;;-4.32;87.13;92650.59;4958013;28;20511;-73
2022/01/17 03:11:27;;;;;;;1.13;1.13;;;;;;;-4.14;87.06;92661.50;4957433;28;20642;-73
2022/01/17 03:13:57;;;;;;;1.37;1.37;;;;;;;-3.93;85.64;92676.53;4957662;28;20557;-73
2022/01/17 03:16:30;;;;;;;5.53;2.63;;;;;;;-4.22;86.25;92622.75;4957836;28;20564;-73
2022/01/17 03:18:57;;;;;;;3.93;3.83;;;;;;;-4.08;85.45;92634.44;4958174;28;20898;-73
2022/01/17 03:21:27;;;;;;;2.00;2.00;;;;;;;-4.42;85.17;92564.19;4958349;28;20540;-73
2022/01/17 03:23:55;;;;;;;2.23;2.17;;;;;;;-4.02;85.17;92629.56;4957557;28;20503;-73
2022/01/17 03:26:22;;;;;;;2.63;2.63;;;;;;;-3.76;84.94;92665.22;4957987;28;20308;-73
2022/01/17 03:28:50;;;;;;;2.33;2.33;;;;;;;-3.65;84.70;92675.22;4957201;28;20587;-73
2022/01/17 03:31:19;;;;;;;10.40;2.27;;;;;;;-4.35;84.11;92556.88;4958610;28;20561;-74
2022/01/17 03:33:47;;;;;;;3.83;3.53;;;;;;;-3.79;84.48;92678.38;4958219;28;20254;-73
2022/01/17 03:36:14;;;;;;;3.20;3.13;;;;;;;-4.05;85.33;92650.09;4956499;28;20569;-74
2022/01/17 03:38:42;;;;;;;4.13;3.73;;;;;;;-4.07;85.79;92650.91;4958105;28;20529;-74
2022/01/17 03:41:13;;;;;;;3.20;3.00;;;;;;;-3.89;86.50;92691.41;4957965;28;20588;-74
2022/01/17 03:43:40;;;;;;;2.23;2.23;;;;;;;-4.48;87.03;92613.41;4956799;28;20595;-74
2022/01/17 03:46:08;;;;;;;3.53;3.43;;;;;;;-4.53;87.68;92645.38;4957154;28;20605;-74
2022/01/17 03:48:37;;;;;;;2.77;2.67;;;;;;;-4.40;87.99;92671.88;4959169;28;20463;-74
2022/01/17 03:51:05;;;;;;;4.07;3.77;;;;;;;-4.57;86.94;92623.97;4957100;28;20496;-74
2022/01/17 03:53:33;;;;;;;2.73;2.73;;;;;;;-4.45;87.39;92618.38;4957195;28;20536;-74
2022/01/17 03:56:01;;;;;;;1.23;1.23;;;;;;;-4.37;86.40;92610.25;4956504;28;20586;-74
2022/01/17 03:58:29;;;;;;;1.67;1.67;;;;;;;-4.21;87.15;92653.19;4956571;28;20214;-74
2022/01/17 04:00:58;;;;;;;1.20;1.20;;;;;;;-4.60;87.43;92591.88;4956963;28;20522;-74
2022/01/17 04:03:27;;;;;;;1.90;1.90;;;;;;;-4.07;86.56;92655.81;4956508;28;20604;-73
2022/01/17 04:05:57;;;;;;;4.13;3.87;;;;;;;-4.10;86.93;92631.94;4957811;28;20591;-73
2022/01/17 04:08:25;;;;;;;4.87;4.40;;;;;;;-4.04;86.72;92654.22;4957326;28;20211;-73
2022/01/17 04:10:52;;;;;;;3.07;2.87;;;;;;;-3.95;87.16;92663.38;4957208;28;20479;-73
2022/01/17 04:13:20;;;;;;;3.77;3.33;;;;;;;-3.91;85.98;92667.53;4956856;28;20665;-73
2022/01/17 04:15:47;;;;;;;7.80;3.83;;;;;;;-4.26;85.84;92602.97;4958525;28;20456;-73
2022/01/17 04:18:23;;;;;;;5.60;5.23;;;;;;;-4.09;86.01;92633.59;4956882;28;20485;-73
2022/01/17 04:20:50;;;;;;;3.87;3.53;;;;;;;-4.10;86.16;92655.78;4956471;28;20541;-73
2022/01/17 04:23:20;;;;;;;5.53;5.07;;;;;;;-4.52;86.71;92597.75;4956854;28;20642;-73
2022/01/17 04:25:48;;;;;;;10.63;5.93;;;;;;;-4.44;86.83;92600.28;4956406;28;20559;-73
2022/01/17 04:28:16;;;;;;;13.07;8.77;;;;;;;-4.33;86.23;92611.94;4957494;28;20562;-73
2022/01/17 04:30:45;;;;;;;6.07;5.77;;;;;;;-4.01;86.00;92658.38;4956408;28;20588;-73
2022/01/17 04:33:13;;;;;;;4.33;4.13;;;;;;;-4.57;85.85;92573.84;4956340;28;20503;-73
2022/01/17 04:35:41;;;;;;;8.47;7.97;;;;;;;-4.14;86.16;92657.38;4958041;28;20558;-73
2022/01/17 04:38:10;;;;;;;6.00;5.30;;;;;;;-4.50;87.65;92620.75;4956398;28;20553;-73
2022/01/17 04:40:40;;;;;;;4.47;3.67;;;;;;;-4.36;87.67;92648.91;4956047;28;20591;-73
2022/01/17 04:43:17;;;;;;;4.60;4.30;;;;;;;-4.42;88.08;92629.09;4957081;28;20572;-73
2022/01/17 04:45:45;;;;;;;5.33;5.07;;;;;;;-4.22;88.48;92657.28;4955882;28;20640;-73
2022/01/17 04:48:12;;;;;;;5.40;5.23;;;;;;;-4.27;88.67;92655.56;4956359;28;20206;-73
2022/01/17 04:50:40;;;;;;;6.17;5.87;;;;;;;-4.28;88.16;92649.00;4958039;28;20513;-73
2022/01/17 04:53:08;;;;;;;11.43;6.20;;;;;;;-4.41;88.27;92654.56;4956682;28;20571;-73
2022/01/17 04:55:36;;;;;;;7.77;5.70;;;;;;;-4.40;88.38;92664.47;4956124;28;20468;-73
2022/01/17 04:58:06;;;;;;;5.63;5.20;;;;;;;-4.33;89.10;92680.16;4956605;28;20198;-73
2022/01/17 05:00:33;;;;;;;7.20;6.63;;;;;;;-4.33;88.10;92665.34;4955922;28;20663;-73
2022/01/17 05:03:00;;;;;;;6.37;5.97;;;;;;;-4.40;88.44;92683.34;4956924;28;20437;-73
2022/01/17 05:05:28;;;;;;;6.37;5.97;;;;;;;-4.39;88.57;92695.69;4957977;28;20449;-73
2022/01/17 05:07:55;;;;;;;10.97;9.87;;;;;;;-4.49;89.00;92683.22;4956522;28;20507;-74
2022/01/17 05:10:23;;;;;;;9.27;8.53;;;;;;;-5.07;89.20;92618.34;4955880;28;20200;-73
2022/01/17 05:12:52;;;;;;;4.53;4.33;;;;;;;-4.82;89.53;92676.16;4957931;28;20473;-73
2022/01/17 05:15:30;;;;;;;9.83;8.03;;;;;;;-4.91;89.99;92674.41;4956428;28;20680;-73
2022/01/17 05:18:00;;;;;;;9.17;7.23;;;;;;;-5.01;90.97;92665.19;4956933;28;20532;-74
2022/01/17 05:20:29;;;;;;;7.90;6.27;;;;;;;-5.39;91.25;92600.59;4956170;28;20566;-73
2022/01/17 05:22:57;;;;;;;5.97;5.63;;;;;;;-5.13;91.96;92633.03;4956557;28;20524;-73
2022/01/17 05:25:25;;;;;;;3.20;3.10;;;;;;;-4.78;91.54;92654.06;4955425;28;20550;-73
2022/01/17 05:27:52;;;;;;;6.10;3.93;;;;;;;-4.76;90.43;92627.00;4955109;28;20652;-74
2022/01/17 05:30:22;;;;;;;6.13;2.63;;;;;;;-4.58;90.43;92666.69;4956156;28;20600;-73
2022/01/17 05:32:52;;;;;;;1.40;1.40;;;;;;;-4.53;90.26;92652.78;4956330;28;20531;-73
2022/01/17 05:35:20;;;;;;;2.13;2.13;;;;;;;-4.66;88.93;92594.28;4957798;28;20578;-73
2022/01/17 05:37:48;;;;;;;2.80;2.63;;;;;;;-4.99;88.97;92551.94;4954393;28;20206;-73
2022/01/17 05:40:17;;;;;;;1.70;1.70;;;;;;;-4.45;88.62;92626.56;4955625;28;20589;-73
2022/01/17 05:42:45;;;;;;;4.80;4.40;;;;;;;-4.18;87.65;92668.88;4957232;28;20640;-73
2022/01/17 05:45:16;;;;;;;5.30;4.80;;;;;;;-4.19;87.31;92672.13;4953021;28;20653;-74
2022/01/17 05:47:46;;;;;;;6.73;6.13;;;;;;;-4.15;87.21;92682.84;4945671;28;20558;-73
2022/01/17 05:50:14;;;;;;;11.87;10.67;;;;;;;-4.14;87.12;92686.97;4945665;28;20659;-73
2022/01/17 05:52:41;;;;;;;15.40;13.97;;;;;;;-4.12;87.65;92690.31;4950387;28;20496;-73
2022/01/17 05:55:14;;;;;;;10.10;8.70;;;;;;;-4.30;88.26;92666.25;4951022;28;20224;-73
2022/01/17 05:57:42;;;;;;;7.27;5.97;;;;;;;-4.14;88.56;92691.91;4951899;28;20586;-74
2022/01/17 06:00:12;;;;;;;10.80;2.43;;;;;;;-4.82;89.57;92630.19;4945580;28;20574;-74
2022/01/17 06:02:39;;;;;;;3.07;2.90;;;;;;;-4.50;89.73;92698.81;4950041;28;20568;-74
2022/01/17 06:05:09;;;;;;;5.90;5.60;;;;;;;-4.98;89.85;92600.41;4953111;28;20552;-75
2022/01/17 06:07:37;;;;;;;5.00;4.40;;;;;;;-4.96;90.30;92616.03;4951681;28;20653;-74
2022/01/17 06:10:13;;;;;;;7.10;5.53;;;;;;;-4.59;91.37;92674.88;4952863;28;20489;-74
2022/01/17 06:12:51;;;;;;;5.43;5.27;;;;;;;-4.84;91.94;92653.13;4946583;28;20210;-74
2022/01/17 06:15:30;;;;;;;5.30;3.90;;;;;;;-4.78;92.23;92675.41;4950668;28;20220;-75
2022/01/17 06:18:13;;;;;;;6.30;5.63;;;;;;;-4.85;92.62;92667.13;4953419;28;20204;-74
2022/01/17 06:20:50;;;;;;;6.23;5.83;;;;;;;-4.84;92.24;92653.13;4949787;28;20565;-73
2022/01/17 06:23:25;;;;;;;6.17;5.93;;;;;;;-5.10;92.84;92609.28;4943778;28;20512;-73
2022/01/17 06:25:57;;;;;;;3.73;3.63;;;;;;;-5.02;92.06;92617.63;4949079;28;20472;-74
2022/01/17 06:28:26;;;;;;;6.23;5.30;;;;;;;-4.97;92.14;92614.38;4952464;28;20558;-75
2022/01/17 06:30:54;;;;;;;7.77;7.20;;;;;;;-4.78;91.62;92624.50;4952588;28;20494;-75
2022/01/17 06:33:21;;;;;;;4.67;4.47;;;;;;;-4.27;91.16;92666.25;4942662;28;20230;-75
2022/01/17 06:35:50;;;;;;;13.80;7.27;;;;;;;-4.82;90.32;92556.28;4951507;28;20601;-74
2022/01/17 06:38:18;;;;;;;15.97;10.27;;;;;;;-4.02;89.91;92667.41;4949242;28;20638;-74
2022/01/17 06:40:51;;;;;;;14.50;9.03;;;;;;;-3.88;89.19;92667.56;4950317;28;20609;-74
2022/01/17 06:43:35;;;;;;;8.77;8.17;;;;;;;-3.78;89.06;92670.16;4946910;28;20545;-74
2022/01/17 06:46:06;;;;;;;10.63;7.90;;;;;;;-3.73;88.11;92671.84;4946286;28;20508;-76
2022/01/17 06:48:41;;;;;;;9.10;8.50;;;;;;;-3.98;88.10;92601.66;4952449;28;20646;-75
2022/01/17 06:51:18;;;;;;;19.13;11.97;;;;;;;-3.95;87.93;92604.16;4945709;28;20511;-75
2022/01/17 06:54:07;;;;;;;7.63;7.13;;;;;;;-3.55;87.04;92669.56;4949224;28;20648;-74
2022/01/17 06:56:35;;;;;;;10.93;10.13;;;;;;;-3.85;86.46;92613.31;4951387;28;20458;-74
2022/01/17 06:59:14;;;;;;;11.33;10.37;;;;;;;-3.90;85.96;92590.25;4951351;28;20586;-76
2022/01/17 07:01:58;;;;;;;11.40;7.97;;;;;;;-3.32;85.13;92672.28;4941294;28;20567;-74
2022/01/17 07:04:28;;;;;;;15.83;14.50;;;;;;;-3.68;85.41;92592.09;4953710;28;20481;-76
2022/01/17 07:07:01;;;;;;;33.70;25.33;;;;;;;-3.71;85.65;92591.22;4948163;28;20564;-75
2022/01/17 07:09:42;;;;;;;58.53;35.50;;;;;;;-3.22;85.74;92650.13;4951250;28;20671;-74
2022/01/17 07:12:17;;;;;;;41.93;28.00;;;;;;;-3.19;85.97;92655.09;4946850;28;20600;-75
2022/01/17 07:14:53;;;;;;;23.03;17.93;;;;;;;-3.58;86.83;92590.53;4951034;28;20266;-74
2022/01/17 07:17:40;;;;;;;19.47;16.63;;;;;;;-3.50;87.33;92582.41;4950488;28;20641;-74
2022/01/17 07:20:23;;;;;;;18.07;16.33;;;;;;;-3.13;87.31;92627.97;4952814;28;20508;-73
2022/01/17 07:23:13;;;;;;;14.20;12.73;;;;;;;-2.93;86.66;92648.72;4942204;28;20560;-73
2022/01/17 07:25:42;;;;;;;9.63;9.10;;;;;;;-3.27;86.47;92590.00;4943724;28;20581;-73
2022/01/17 07:28:10;;;;;;;16.37;12.63;;;;;;;-3.04;86.31;92622.25;4950093;28;20624;-73
2022/01/17 07:30:38;;;;;;;13.93;12.63;;;;;;;-2.79;86.43;92652.94;4950336;28;20634;-73
2022/01/17 07:33:07;;;;;;;7.07;6.63;;;;;;;-2.80;86.47;92659.53;4953843;28;20542;-74
2022/01/17 07:35:35;;;;;;;15.77;14.00;;;;;;;-2.74;85.52;92659.56;4952612;28;20718;-74
2022/01/17 07:38:03;;;;;;;13.07;9.13;;;;;;;-2.66;85.20;92643.16;4943085;28;20490;-75
2022/01/17 07:40:34;;;;;;;11.83;8.80;;;;;;;-2.96;84.15;92598.44;4953265;28;20524;-74
2022/01/17 07:43:01;;;;;;;9.13;7.63;;;;;;;-2.68;82.94;92644.78;4952845;28;20432;-74
2022/01/17 07:45:30;;;;;;;11.80;10.13;;;;;;;-2.70;83.55;92619.22;4952424;28;20557;-74
2022/01/17 07:48:12;;;;;;;6.70;5.40;;;;;;;-2.78;82.08;92590.34;4949398;28;20551;-75
2022/01/17 07:50:42;;;;;;;4.90;4.67;;;;;;;-2.33;78.36;92647.47;4945292;28;20478;-75
2022/01/17 07:53:13;;;;;;;4.83;4.60;;;;;;;-2.73;78.86;92573.88;4950436;28;20204;-75
2022/01/17 07:55:41;;;;;;;3.60;3.50;;;;;;;-2.13;78.78;92662.41;4956000;28;20504;-75
2022/01/17 07:58:09;;;;;;;7.17;6.47;;;;;;;-2.43;78.17;92591.38;4944768;28;20600;-74
2022/01/17 08:00:37;;;;;;;12.17;10.13;;;;;;;-2.57;77.29;92575.63;4942115;28;20574;-74
2022/01/17 08:03:06;;;;;;;9.83;8.97;;;;;;;-1.76;76.96;92691.47;4946820;28;20548;-75
2022/01/17 08:05:34;;;;;;;9.23;8.53;;;;;;;-1.58;75.96;92687.41;4945801;28;20461;-77
2022/01/17 08:08:02;;;;;;;6.40;5.83;;;;;;;-1.53;74.32;92665.97;4942844;28;20546;-74
2022/01/17 08:10:30;;;;;;;15.50;8.10;;;;;;;-1.39;73.91;92684.97;4944349;28;20632;-74
2022/01/17 08:12:58;;;;;;;12.60;9.17;;;;;;;-1.20;73.26;92694.94;4948568;28;20587;-74
2022/01/17 08:15:26;;;;;;;8.50;7.67;;;;;;;-1.09;72.23;92681.75;4950114;28;20620;-74
2022/01/17 08:17:54;;;;;;;4.33;4.13;;;;;;;-0.94;70.74;92693.31;4947891;28;20572;-75
2022/01/17 08:20:21;;;;;;;6.70;5.57;;;;;;;-0.85;70.09;92694.19;4944984;28;20597;-75
2022/01/17 08:22:49;;;;;;;9.27;8.13;;;;;;;-0.84;70.20;92705.72;4943889;28;20663;-77
2022/01/17 08:25:17;;;;;;;8.03;7.30;;;;;;;-0.72;68.98;92751.22;4950475;28;20481;-76
2022/01/17 08:27:45;;;;;;;9.17;7.80;;;;;;;-0.54;68.16;92779.34;4938391;28;20652;-73
2022/01/17 08:30:18;;;;;;;10.33;8.93;;;;;;;-0.42;68.63;92769.44;4941449;28;20661;-77
2022/01/17 08:32:45;;;;;;;15.47;9.80;;;;;;;-0.37;69.82;92771.91;4948940;28;20610;-74
2022/01/17 08:35:13;;;;;;;9.90;8.30;;;;;;;-0.40;69.73;92744.63;4948115;28;20569;-74
2022/01/17 08:37:40;;;;;;;12.70;11.10;;;;;;;-0.30;69.48;92704.09;4947488;28;20214;-73
2022/01/17 08:40:11;;;;;;;11.33;6.67;;;;;;;-0.10;70.63;92702.41;4947656;28;20211;-73
2022/01/17 08:42:39;;;;;;;16.03;10.43;;;;;;;-0.07;71.68;92694.97;4947340;28;20209;-73
2022/01/17 08:45:09;;;;;;;8.57;7.10;;;;;;;-0.05;73.18;92640.31;4949326;28;20580;-73
2022/01/17 08:47:38;;;;;;;5.83;5.30;;;;;;;0.12;70.30;92684.97;4947482;28;20492;-74
2022/01/17 08:50:08;;;;;;;5.90;5.60;;;;;;;0.14;69.10;92684.13;4951644;28;20583;-74
2022/01/17 08:52:35;;;;;;;4.87;4.67;;;;;;;0.17;69.81;92641.88;4947943;28;20589;-73
2022/01/17 08:55:02;;;;;;;6.57;6.10;;;;;;;0.23;68.66;92656.78;4949003;28;20615;-73
2022/01/17 08:57:30;;;;;;;4.90;4.57;;;;;;;0.32;66.73;92678.28;4949743;28;20201;-73
2022/01/17 08:59:58;;;;;;;9.00;3.30;;;;;;;0.38;65.78;92666.66;4946634;28;20220;-73
2022/01/17 09:02:25;;;;;;;3.53;3.43;;;;;;;0.36;65.67;92598.75;4937949;28;20504;-72
2022/01/17 09:04:54;;;;;;;10.00;5.33;;;;;;;0.51;65.94;92625.16;4950638;28;20208;-72
2022/01/17 09:07:21;;;;;;;5.87;5.43;;;;;;;0.47;66.51;92578.81;4948268;28;20600;-73
2022/01/17 09:09:48;;;;;;;6.30;5.93;;;;;;;0.58;65.76;92596.97;4950214;28;20477;-73
2022/01/17 09:12:15;;;;;;;5.43;5.03;;;;;;;0.73;66.47;92598.56;4946349;28;20268;-73
2022/01/17 09:14:43;;;;;;;6.50;5.93;;;;;;;0.84;66.18;92580.22;4946156;28;20499;-73
2022/01/17 09:17:11;;;;;;;7.03;6.57;;;;;;;0.95;65.88;92564.41;4952789;28;20474;-72
2022/01/17 09:19:41;;;;;;;4.53;4.37;;;;;;;1.09;64.25;92573.41;4953424;28;20678;-73
2022/01/17 09:22:11;;;;;;;9.53;6.60;;;;;;;1.23;63.31;92590.72;4950526;28;20541;-73
2022/01/17 09:24:40;;;;;;;9.50;8.60;;;;;;;1.30;62.03;92576.56;4947420;28;20469;-73
2022/01/17 09:27:08;;;;;;;13.33;7.87;;;;;;;1.48;61.31;92601.25;4949688;28;20641;-73
2022/01/17 09:29:35;;;;;;;16.80;9.47;;;;;;;1.57;61.32;92598.72;4953115;28;20501;-73
2022/01/17 09:32:03;;;;;;;11.87;7.67;;;;;;;1.63;60.60;92601.94;4949287;28;20605;-72
2022/01/17 09:34:30;;;;;;;7.23;6.57;;;;;;;1.81;57.72;92620.84;4949348;28;20258;-72
2022/01/17 09:36:58;;;;;;;32.63;11.67;;;;;;;1.95;58.33;92600.81;4948963;28;20208;-72
2022/01/17 09:39:26;;;;;;;39.83;16.80;;;;;;;1.95;60.24;92584.19;4950021;28;20697;-73
2022/01/17 09:41:53;;;;;;;31.17;13.83;;;;;;;2.22;60.75;92592.19;4955705;28;20558;-72
2022/01/17 09:44:20;;;;;;;33.10;13.03;;;;;;;2.34;60.46;92574.59;4951142;28;20610;-71
2022/01/17 09:46:52;;;;;;;33.80;15.23;;;;;;;2.51;58.79;92575.19;4953534;28;20274;-72
2022/01/17 09:49:25;;;;;;;10.07;7.97;;;;;;;2.68;58.58;92584.94;4946715;28;20636;-71
2022/01/17 09:52:26;;;;;;;7.87;7.03;;;;;;;2.87;58.67;92572.16;4949805;28;20585;-71
2022/01/17 09:54:56;;;;;;;24.83;12.30;;;;;;;3.14;58.21;92582.59;4952110;28;20672;-71
2022/01/17 09:57:24;;;;;;;7.73;6.80;;;;;;;3.27;56.39;92581.53;4952394;28;20629;-71
2022/01/17 09:59:51;;;;;;;7.30;6.33;;;;;;;3.46;54.87;92592.88;4932955;28;20526;-71
2022/01/17 10:02:19;;;;;;;5.57;5.27;;;;;;;3.61;56.07;92574.31;4948891;28;20488;-72
2022/01/17 10:04:46;;;;;;;9.20;7.60;;;;;;;3.71;54.17;92591.63;4951773;28;20573;-72
2022/01/17 10:07:13;;;;;;;13.70;6.47;;;;;;;3.79;52.93;92591.47;4948985;28;20278;-72
2022/01/17 10:09:43;;;;;;;11.70;7.60;;;;;;;3.95;51.36;92612.84;4953354;28;20583;-73
2022/01/17 10:12:15;;;;;;;11.67;7.47;;;;;;;4.13;51.99;92595.00;4944923;28;20603;-71
2022/01/17 10:14:43;;;;;;;32.40;10.90;;;;;;;4.44;50.71;92595.25;4950020;28;20598;-71
2022/01/17 10:17:12;;;;;;;20.50;12.23;;;;;;;5.52;48.01;92605.34;4952357;28;20213;-72
2022/01/17 10:19:40;;;;;;;43.37;10.50;;;;;;;7.24;44.34;92631.66;4953565;28;20197;-72
2022/01/17 10:22:14;;;;;;;32.53;12.37;;;;;;;8.84;39.89;92646.53;4953655;28;20240;-71
2022/01/17 10:24:52;;;;;;;35.87;11.90;;;;;;;10.29;36.55;92655.22;4952580;28;20204;-72
2022/01/17 10:30:32;;;;;;;16.97;10.67;;;;;;;13.03;31.76;92644.13;4948167;28;20536;-72
2022/01/17 10:35:51;;;;;;;46.08;17.35;;;;;;;14.69;29.75;92625.72;4911038;28;20543;-72
2022/01/17 10:38:22;;;;;;;38.65;15.13;;;;;;;15.61;30.01;92603.19;4950489;28;20532;-71
2022/01/17 10:40:56;;;;;;;30.73;12.85;;;;;;;16.22;26.70;92612.91;4946626;28;20537;-72
2022/01/17 10:43:33;;;;;;;30.65;14.07;;;;;;;16.72;27.08;92584.13;4950097;28;20588;-72
2022/01/17 10:46:00;;;;;;;22.58;11.75;;;;;;;17.50;24.69;92607.72;4947147;28;20580;-72
2022/01/17 10:48:31;;;;;;;45.30;14.57;;;;;;;18.10;24.05;92592.38;4953789;28;20270;-71
2022/01/17 10:50:59;;;;;;;22.42;12.27;;;;;;;18.49;23.52;92578.44;4954534;28;20584;-71
2022/01/17 10:53:26;;;;;;;24.70;13.57;;;;;;;18.57;23.85;92573.63;4948982;28;20593;-72
2022/01/17 10:55:55;;;;;;;20.13;13.27;;;;;;;17.68;24.58;92573.25;4947116;28;20664;-73
2022/01/17 10:58:27;;;;;;;24.08;15.23;;;;;;;17.19;24.31;92568.16;4944433;28;20223;-74
2022/01/17 11:00:56;;;;;;;15.68;12.48;;;;;;;16.81;24.46;92565.66;4949829;28;20588;-75
2022/01/17 11:03:28;;;;;;;9.00;7.97;;;;;;;16.63;24.15;92564.31;4954034;28;20524;-76
2022/01/17 11:05:57;;;;;;;20.85;11.88;;;;;;;16.43;24.37;92565.63;4943349;28;20601;-73
2022/01/17 11:08:26;;;;;;;15.23;10.95;;;;;;;15.95;26.27;92563.69;4950944;28;20277;-72
2022/01/17 11:10:55;;;;;;;16.95;10.55;;;;;;;14.63;28.63;92542.16;4953558;28;20530;-73
2022/01/17 11:13:25;;;;;;;21.15;11.35;;;;;;;13.93;28.60;92551.28;4949507;28;20596;-72
2022/01/17 11:15:55;;;;;;;22.20;11.57;;;;;;;13.90;29.32;92533.69;4944505;28;20667;-73
2022/01/17 11:18:26;;;;;;;30.67;12.48;;;;;;;14.69;29.14;92524.00;4948013;28;20208;-73
2022/01/17 11:20:56;;;;;;;23.27;7.43;;;;;;;15.75;27.45;92545.41;4947744;28;20556;-73
2022/01/17 11:23:23;;;;;;;37.80;15.65;;;;;;;16.29;26.60;92521.53;4952368;28;20668;-73
2022/01/17 11:25:54;;;;;;;14.10;8.10;;;;;;;16.88;26.13;92548.19;4944181;28;20564;-73
2022/01/17 11:28:24;;;;;;;5.57;4.07;;;;;;;16.05;25.78;92552.00;4951258;28;20654;-73
2022/01/17 11:30:55;;;;;;;6.32;5.35;;;;;;;14.59;27.90;92533.06;4951501;28;20204;-74
2022/01/17 11:33:24;;;;;;;14.77;7.93;;;;;;;14.24;29.75;92527.50;4923079;28;20585;-73
2022/01/17 11:35:52;;;;;;;5.57;5.05;;;;;;;14.70;29.19;92512.09;4952010;28;20224;-73
2022/01/17 11:38:24;;;;;;;8.82;6.80;;;;;;;15.55;27.92;92487.25;4948074;28;20600;-74
2022/01/17 11:40:52;;;;;;;6.13;5.50;;;;;;;15.73;27.42;92518.38;4951960;28;20472;-74
2022/01/17 11:43:24;;;;;;;10.57;8.02;;;;;;;16.45;27.92;92509.44;4948787;28;20616;-75
2022/01/17 11:45:55;;;;;;;9.10;8.20;;;;;;;17.07;26.98;92515.38;4949090;28;20562;-74
2022/01/17 11:48:51;;;;;;;15.27;8.75;;;;;;;17.75;25.88;92527.63;4949908;28;20570;-73
2022/01/17 11:51:36;;;;;;;9.90;7.68;;;;;;;18.32;25.20;92537.13;4952201;28;20560;-74
2022/01/17 11:54:11;;;;;;;15.95;9.15;;;;;;;18.58;25.70;92526.63;4946975;28;20199;-74
2022/01/17 11:56:44;;;;;;;9.13;8.20;;;;;;;18.83;25.25;92519.66;4950873;28;20254;-73
2022/01/17 11:59:42;;;;;;;9.55;8.55;;;;;;;19.26;25.68;92520.59;4946080;28;20564;-74
2022/01/17 12:02:20;;;;;;;21.08;11.05;;;;;;;19.47;24.70;92502.75;4946651;28;20581;-74